sensor_id;sensor_type;location;lat;lon;timestamp;pressure;altitude;pressure_sealevel;temperature;humidity
72330;BME280;69154;52.076;5.110;2023-06-14T00:02:08;101597.51;;;14.09;28.59
72330;BME280;69154;52.076;5.110;2023-06-14T00:04:33;101598.56;;;14.99;27.89
72330;BME280;69154;52.076;5.110;2023-06-14T00:06:58;101598.74;;;14.61;28.15
72330;BME280;69154;52.076;5.110;2023-06-14T00:09:23;101598.80;;;14.07;27.99
72330;BME280;69154;52.076;5.110;2023-06-14T00:11:48;101600.65;;;15.01;27.59
72330;BME280;69154;52.076;5.110;2023-06-14T00:14:13;101600.61;;;15.01;27.63
72330;BME280;69154;52.076;5.110;2023-06-14T00:16:38;101597.22;;;14.37;27.69
72330;BME280;69154;52.076;5.110;2023-06-14T00:19:03;101601.38;;;14.18;28.32
72330;BME280;69154;52.076;5.110;2023-06-14T00:21:28;101599.01;;;14.64;27.66
72330;BME280;69154;52.076;5.110;2023-06-14T00:23:53;101601.13;;;13.98;27.75
72330;BME280;69154;52.076;5.110;2023-06-14T00:26:18;101603.20;;;13.81;28.16
72330;BME280;69154;52.076;5.110;2023-06-14T00:28:43;101599.78;;;14.88;27.80
72330;BME280;69154;52.076;5.110;2023-06-14T00:31:08;101601.50;;;13.35;28.55
72330;BME280;69154;52.076;5.110;2023-06-14T00:33:33;101599.94;;;14.27;28.19
72330;BME280;69154;52.076;5.110;2023-06-14T00:35:58;101602.31;;;14.21;27.98
72330;BME280;69154;52.076;5.110;2023-06-14T00:38:23;101602.36;;;13.84;28.35
72330;BME280;69154;52.076;5.110;2023-06-14T00:40:48;101602.41;;;13.33;28.47
72330;BME280;69154;52.076;5.110;2023-06-14T00:43:13;101605.12;;;13.97;28.16
72330;BME280;69154;52.076;5.110;2023-06-14T00:45:39;101604.64;;;13.64;28.54
72330;BME280;69154;52.076;5.110;2023-06-14T00:48:04;101607.52;;;13.93;28.00
72330;BME280;69154;52.076;5.110;2023-06-14T00:50:29;101611.83;;;14.23;27.80
72330;BME280;69154;52.076;5.110;2023-06-14T00:52:54;101608.90;;;14.92;26.69
72330;BME280;69154;52.076;5.110;2023-06-14T00:55:19;101605.83;;;14.68;27.57
72330;BME280;69154;52.076;5.110;2023-06-14T00:57:44;101604.99;;;14.98;26.95
72330;BME280;69154;52.076;5.110;2023-06-14T01:00:10;101604.92;;;14.39;27.10
72330;BME280;69154;52.076;5.110;2023-06-14T01:02:34;101605.85;;;14.34;27.47
72330;BME280;69154;52.076;5.110;2023-06-14T01:04:59;101605.75;;;14.35;27.26
72330;BME280;69154;52.076;5.110;2023-06-14T01:07:33;101605.54;;;13.67;27.93
72330;BME280;69154;52.076;5.110;2023-06-14T01:09:58;101607.45;;;13.44;29.03
72330;BME280;69154;52.076;5.110;2023-06-14T01:12:21;101607.39;;;13.13;28.48
72330;BME280;69154;52.076;5.110;2023-06-14T01:14:39;101606.77;;;13.27;28.50
72330;BME280;69154;52.076;5.110;2023-06-14T01:17:05;101604.97;;;14.11;27.95
72330;BME280;69154;52.076;5.110;2023-06-14T01:19:30;101606.68;;;14.90;27.27
72330;BME280;69154;52.076;5.110;2023-06-14T01:21:55;101605.52;;;14.91;26.99
72330;BME280;69154;52.076;5.110;2023-06-14T01:24:20;101602.83;;;14.54;27.46
72330;BME280;69154;52.076;5.110;2023-06-14T01:26:45;101603.94;;;14.45;27.13
72330;BME280;69154;52.076;5.110;2023-06-14T01:29:11;101602.70;;;13.70;28.22
72330;BME280;69154;52.076;5.110;2023-06-14T01:31:36;101601.49;;;13.22;27.62
72330;BME280;69154;52.076;5.110;2023-06-14T01:34:01;101609.58;;;13.70;27.75
72330;BME280;69154;52.076;5.110;2023-06-14T01:36:28;101609.02;;;14.07;27.49
72330;BME280;69154;52.076;5.110;2023-06-14T01:38:52;101605.74;;;14.46;27.12
72330;BME280;69154;52.076;5.110;2023-06-14T01:41:17;101608.51;;;14.67;27.06
72330;BME280;69154;52.076;5.110;2023-06-14T01:43:42;101609.34;;;14.45;26.23
72330;BME280;69154;52.076;5.110;2023-06-14T01:46:08;101604.80;;;15.25;26.55
72330;BME280;69154;52.076;5.110;2023-06-14T01:48:32;101608.01;;;14.68;26.22
72330;BME280;69154;52.076;5.110;2023-06-14T01:50:57;101605.22;;;15.22;25.95
72330;BME280;69154;52.076;5.110;2023-06-14T01:53:22;101604.63;;;15.00;25.67
72330;BME280;69154;52.076;5.110;2023-06-14T01:55:47;101605.24;;;14.13;26.80
72330;BME280;69154;52.076;5.110;2023-06-14T01:58:12;101607.52;;;14.05;27.66
72330;BME280;69154;52.076;5.110;2023-06-14T02:00:37;101605.97;;;13.58;27.29
72330;BME280;69154;52.076;5.110;2023-06-14T02:03:03;101602.55;;;15.18;26.95
72330;BME280;69154;52.076;5.110;2023-06-14T02:05:27;101603.11;;;14.27;27.14
72330;BME280;69154;52.076;5.110;2023-06-14T02:07:53;101599.47;;;14.26;27.72
72330;BME280;69154;52.076;5.110;2023-06-14T02:10:18;101598.72;;;14.61;26.36
72330;BME280;69154;52.076;5.110;2023-06-14T02:12:43;101598.12;;;14.56;27.46
72330;BME280;69154;52.076;5.110;2023-06-14T02:15:09;101596.11;;;14.89;26.88
72330;BME280;69154;52.076;5.110;2023-06-14T02:17:33;101594.56;;;13.81;27.40
72330;BME280;69154;52.076;5.110;2023-06-14T02:19:58;101595.85;;;14.06;27.04
72330;BME280;69154;52.076;5.110;2023-06-14T02:22:23;101595.95;;;14.15;26.90
72330;BME280;69154;52.076;5.110;2023-06-14T02:24:48;101597.72;;;13.90;27.29
72330;BME280;69154;52.076;5.110;2023-06-14T02:27:14;101596.43;;;13.94;27.19
72330;BME280;69154;52.076;5.110;2023-06-14T02:29:39;101599.98;;;14.11;26.93
72330;BME280;69154;52.076;5.110;2023-06-14T02:32:05;101601.81;;;13.06;28.22
72330;BME280;69154;52.076;5.110;2023-06-14T02:34:30;101600.68;;;14.85;27.29
72330;BME280;69154;52.076;5.110;2023-06-14T02:36:54;101606.40;;;14.00;27.12
72330;BME280;69154;52.076;5.110;2023-06-14T02:39:19;101602.93;;;13.61;27.63
72330;BME280;69154;52.076;5.110;2023-06-14T02:41:44;101603.87;;;13.66;27.69
72330;BME280;69154;52.076;5.110;2023-06-14T02:44:10;101606.89;;;14.42;27.51
72330;BME280;69154;52.076;5.110;2023-06-14T02:46:35;101605.97;;;13.89;28.05
72330;BME280;69154;52.076;5.110;2023-06-14T02:49:00;101605.88;;;13.29;28.03
72330;BME280;69154;52.076;5.110;2023-06-14T02:51:25;101611.46;;;13.78;28.19
72330;BME280;69154;52.076;5.110;2023-06-14T02:53:50;101610.21;;;13.64;27.93
72330;BME280;69154;52.076;5.110;2023-06-14T02:56:16;101610.65;;;13.64;28.23
72330;BME280;69154;52.076;5.110;2023-06-14T02:58:41;101614.06;;;12.89;28.42
72330;BME280;69154;52.076;5.110;2023-06-14T03:01:06;101615.20;;;13.60;27.78
72330;BME280;69154;52.076;5.110;2023-06-14T03:03:32;101614.93;;;13.56;28.20
72330;BME280;69154;52.076;5.110;2023-06-14T03:05:56;101617.92;;;12.68;28.68
72330;BME280;69154;52.076;5.110;2023-06-14T03:08:21;101620.25;;;13.28;29.17
72330;BME280;69154;52.076;5.110;2023-06-14T03:10:47;101624.97;;;12.79;28.93
72330;BME280;69154;52.076;5.110;2023-06-14T03:13:12;101627.93;;;12.35;29.30
72330;BME280;69154;52.076;5.110;2023-06-14T03:15:36;101633.05;;;12.32;29.60
72330;BME280;69154;52.076;5.110;2023-06-14T03:18:02;101634.88;;;12.34;29.52
72330;BME280;69154;52.076;5.110;2023-06-14T03:20:27;101633.70;;;12.63;29.89
72330;BME280;69154;52.076;5.110;2023-06-14T03:22:52;101631.86;;;12.54;29.37
72330;BME280;69154;52.076;5.110;2023-06-14T03:25:17;101640.55;;;12.08;30.68
72330;BME280;69154;52.076;5.110;2023-06-14T03:27:42;101638.77;;;12.31;29.80
72330;BME280;69154;52.076;5.110;2023-06-14T03:30:08;101643.10;;;11.96;30.45
72330;BME280;69154;52.076;5.110;2023-06-14T03:32:33;101641.85;;;12.12;30.39
72330;BME280;69154;52.076;5.110;2023-06-14T03:34:58;101646.20;;;12.29;30.16
72330;BME280;69154;52.076;5.110;2023-06-14T03:37:24;101649.47;;;13.09;30.23
72330;BME280;69154;52.076;5.110;2023-06-14T03:39:49;101649.52;;;13.03;29.33
72330;BME280;69154;52.076;5.110;2023-06-14T03:42:14;101656.44;;;12.41;29.83
72330;BME280;69154;52.076;5.110;2023-06-14T03:44:39;101658.80;;;11.05;30.83
72330;BME280;69154;52.076;5.110;2023-06-14T03:47:05;101661.98;;;12.04;31.27
72330;BME280;69154;52.076;5.110;2023-06-14T03:49:30;101662.73;;;11.73;30.68
72330;BME280;69154;52.076;5.110;2023-06-14T03:51:55;101663.34;;;11.00;31.30
72330;BME280;69154;52.076;5.110;2023-06-14T03:54:20;101663.20;;;12.14;30.97
72330;BME280;69154;52.076;5.110;2023-06-14T03:56:45;101665.07;;;11.95;31.50
72330;BME280;69154;52.076;5.110;2023-06-14T03:59:10;101665.43;;;11.65;31.01
72330;BME280;69154;52.076;5.110;2023-06-14T04:01:35;101667.24;;;12.01;30.33
72330;BME280;69154;52.076;5.110;2023-06-14T04:04:00;101667.83;;;11.23;31.19
72330;BME280;69154;52.076;5.110;2023-06-14T04:06:25;101671.25;;;11.58;31.52
72330;BME280;69154;52.076;5.110;2023-06-14T04:08:51;101673.99;;;11.82;31.70
72330;BME280;69154;52.076;5.110;2023-06-14T04:11:16;101677.22;;;12.17;30.85
72330;BME280;69154;52.076;5.110;2023-06-14T04:13:41;101675.53;;;12.38;30.09
72330;BME280;69154;52.076;5.110;2023-06-14T04:16:06;101679.66;;;12.24;30.37
72330;BME280;69154;52.076;5.110;2023-06-14T04:18:32;101679.91;;;12.89;29.77
72330;BME280;69154;52.076;5.110;2023-06-14T04:20:56;101680.73;;;12.85;29.74
72330;BME280;69154;52.076;5.110;2023-06-14T04:23:21;101684.02;;;11.88;30.69
72330;BME280;69154;52.076;5.110;2023-06-14T04:25:47;101685.85;;;11.74;31.48
72330;BME280;69154;52.076;5.110;2023-06-14T04:28:12;101683.62;;;12.74;30.62
72330;BME280;69154;52.076;5.110;2023-06-14T04:30:37;101685.95;;;11.53;30.75
72330;BME280;69154;52.076;5.110;2023-06-14T04:33:02;101689.83;;;12.08;30.94
72330;BME280;69154;52.076;5.110;2023-06-14T04:35:28;101688.78;;;12.16;31.99
72330;BME280;69154;52.076;5.110;2023-06-14T04:37:53;101690.97;;;12.19;31.32
72330;BME280;69154;52.076;5.110;2023-06-14T04:40:18;101689.00;;;11.98;31.46
72330;BME280;69154;52.076;5.110;2023-06-14T04:42:44;101690.19;;;12.18;31.09
72330;BME280;69154;52.076;5.110;2023-06-14T04:45:09;101694.19;;;12.85;30.42
72330;BME280;69154;52.076;5.110;2023-06-14T04:47:35;101693.76;;;12.28;30.06
72330;BME280;69154;52.076;5.110;2023-06-14T04:50:00;101697.36;;;11.67;31.02
72330;BME280;69154;52.076;5.110;2023-06-14T04:52:25;101700.20;;;12.52;30.66
72330;BME280;69154;52.076;5.110;2023-06-14T04:54:50;101699.35;;;12.78;30.53
72330;BME280;69154;52.076;5.110;2023-06-14T04:57:16;101698.33;;;12.47;30.14
72330;BME280;69154;52.076;5.110;2023-06-14T04:59:41;101703.96;;;12.04;30.60
72330;BME280;69154;52.076;5.110;2023-06-14T05:02:06;101701.49;;;12.47;30.42
72330;BME280;69154;52.076;5.110;2023-06-14T05:04:32;101701.22;;;12.26;30.17
72330;BME280;69154;52.076;5.110;2023-06-14T05:06:57;101701.09;;;12.60;30.06
72330;BME280;69154;52.076;5.110;2023-06-14T05:09:22;101703.65;;;12.75;30.94
72330;BME280;69154;52.076;5.110;2023-06-14T05:11:47;101706.86;;;12.69;30.87
72330;BME280;69154;52.076;5.110;2023-06-14T05:14:12;101708.45;;;12.86;30.62
72330;BME280;69154;52.076;5.110;2023-06-14T05:16:37;101704.77;;;13.78;29.35
72330;BME280;69154;52.076;5.110;2023-06-14T05:19:02;101705.66;;;14.65;28.44
72330;BME280;69154;52.076;5.110;2023-06-14T05:21:27;101710.14;;;14.37;28.45
72330;BME280;69154;52.076;5.110;2023-06-14T05:23:52;101709.74;;;14.40;28.60
72330;BME280;69154;52.076;5.110;2023-06-14T05:26:19;101707.09;;;13.91;28.61
72330;BME280;69154;52.076;5.110;2023-06-14T05:28:43;101709.89;;;13.91;29.49
72330;BME280;69154;52.076;5.110;2023-06-14T05:31:09;101712.17;;;13.97;28.53
72330;BME280;69154;52.076;5.110;2023-06-14T05:33:34;101714.05;;;14.55;28.70
72330;BME280;69154;52.076;5.110;2023-06-14T05:35:59;101716.39;;;15.11;27.47
72330;BME280;69154;52.076;5.110;2023-06-14T05:38:24;101718.50;;;14.44;28.17
72330;BME280;69154;52.076;5.110;2023-06-14T05:40:49;101712.62;;;14.14;28.05
72330;BME280;69154;52.076;5.110;2023-06-14T05:43:14;101712.14;;;13.43;28.97
72330;BME280;69154;52.076;5.110;2023-06-14T05:45:39;101711.15;;;13.39;29.48
72330;BME280;69154;52.076;5.110;2023-06-14T05:48:05;101716.85;;;13.11;29.81
72330;BME280;69154;52.076;5.110;2023-06-14T05:50:30;101718.48;;;14.98;28.44
72330;BME280;69154;52.076;5.110;2023-06-14T05:52:55;101721.22;;;15.20;27.40
72330;BME280;69154;52.076;5.110;2023-06-14T05:55:20;101722.68;;;15.74;29.94
72330;BME280;69154;52.076;5.110;2023-06-14T05:57:45;101721.63;;;15.98;25.84
72330;BME280;69154;52.076;5.110;2023-06-14T06:00:11;101729.88;;;15.85;26.51
72330;BME280;69154;52.076;5.110;2023-06-14T06:02:35;101729.32;;;15.55;26.26
72330;BME280;69154;52.076;5.110;2023-06-14T06:05:00;101732.64;;;14.69;26.61
72330;BME280;69154;52.076;5.110;2023-06-14T06:07:25;101732.10;;;15.19;27.31
72330;BME280;69154;52.076;5.110;2023-06-14T06:09:50;101731.40;;;13.78;28.06
72330;BME280;69154;52.076;5.110;2023-06-14T06:12:15;101732.03;;;14.89;27.56
72330;BME280;69154;52.076;5.110;2023-06-14T06:14:40;101732.45;;;13.09;28.25
72330;BME280;69154;52.076;5.110;2023-06-14T06:17:06;101732.46;;;14.95;27.30
72330;BME280;69154;52.076;5.110;2023-06-14T06:19:32;101738.71;;;15.27;26.86
72330;BME280;69154;52.076;5.110;2023-06-14T06:21:56;101739.42;;;14.60;27.02
72330;BME280;69154;52.076;5.110;2023-06-14T06:24:21;101737.18;;;15.45;27.08
72330;BME280;69154;52.076;5.110;2023-06-14T06:26:46;101738.29;;;15.45;26.28
72330;BME280;69154;52.076;5.110;2023-06-14T06:29:12;101737.76;;;16.24;25.93
72330;BME280;69154;52.076;5.110;2023-06-14T06:31:37;101740.01;;;15.27;25.97
72330;BME280;69154;52.076;5.110;2023-06-14T06:34:02;101739.67;;;16.08;25.98
72330;BME280;69154;52.076;5.110;2023-06-14T06:36:27;101737.58;;;15.00;27.37
72330;BME280;69154;52.076;5.110;2023-06-14T06:38:52;101742.88;;;14.06;27.90
72330;BME280;69154;52.076;5.110;2023-06-14T06:41:18;101745.58;;;14.58;27.87
72330;BME280;69154;52.076;5.110;2023-06-14T06:43:43;101751.47;;;16.02;26.08
72330;BME280;69154;52.076;5.110;2023-06-14T06:46:08;101754.04;;;15.47;26.65
72330;BME280;69154;52.076;5.110;2023-06-14T06:48:33;101754.55;;;15.64;26.53
72330;BME280;69154;52.076;5.110;2023-06-14T06:50:58;101756.95;;;13.98;28.21
72330;BME280;69154;52.076;5.110;2023-06-14T06:53:23;101759.40;;;15.13;27.86
72330;BME280;69154;52.076;5.110;2023-06-14T06:55:48;101759.39;;;15.64;27.02
72330;BME280;69154;52.076;5.110;2023-06-14T06:58:14;101761.48;;;15.82;26.51
72330;BME280;69154;52.076;5.110;2023-06-14T07:00:39;101765.56;;;15.21;26.22
72330;BME280;69154;52.076;5.110;2023-06-14T07:03:05;101769.35;;;15.96;26.48
72330;BME280;69154;52.076;5.110;2023-06-14T07:05:29;101772.46;;;16.24;26.25
72330;BME280;69154;52.076;5.110;2023-06-14T07:07:54;101777.88;;;17.33;25.00
72330;BME280;69154;52.076;5.110;2023-06-14T07:10:19;101773.21;;;16.13;26.32
72330;BME280;69154;52.076;5.110;2023-06-14T07:12:45;101776.22;;;16.38;25.99
72330;BME280;69154;52.076;5.110;2023-06-14T07:15:11;101781.80;;;17.50;24.48
72330;BME280;69154;52.076;5.110;2023-06-14T07:17:36;101782.20;;;17.97;23.79
72330;BME280;69154;52.076;5.110;2023-06-14T07:20:02;101788.16;;;17.82;23.03
72330;BME280;69154;52.076;5.110;2023-06-14T07:22:27;101782.63;;;16.59;25.21
72330;BME280;69154;52.076;5.110;2023-06-14T07:24:53;101783.47;;;15.03;27.25
72330;BME280;69154;52.076;5.110;2023-06-14T07:27:19;101787.68;;;15.42;27.14
72330;BME280;69154;52.076;5.110;2023-06-14T07:29:45;101789.17;;;16.91;25.70
72330;BME280;69154;52.076;5.110;2023-06-14T07:32:11;101787.96;;;16.74;26.48
72330;BME280;69154;52.076;5.110;2023-06-14T07:34:37;101795.81;;;16.72;25.40
72330;BME280;69154;52.076;5.110;2023-06-14T07:37:03;101799.42;;;17.26;24.78
72330;BME280;69154;52.076;5.110;2023-06-14T07:39:28;101800.37;;;15.77;25.43
72330;BME280;69154;52.076;5.110;2023-06-14T07:41:54;101800.24;;;16.92;24.86
72330;BME280;69154;52.076;5.110;2023-06-14T07:44:20;101802.24;;;16.37;24.97
72330;BME280;69154;52.076;5.110;2023-06-14T07:46:46;101799.90;;;16.15;25.24
72330;BME280;69154;52.076;5.110;2023-06-14T07:49:11;101809.90;;;17.39;24.06
72330;BME280;69154;52.076;5.110;2023-06-14T07:51:37;101810.06;;;17.86;23.58
72330;BME280;69154;52.076;5.110;2023-06-14T07:54:03;101813.80;;;17.46;23.60
72330;BME280;69154;52.076;5.110;2023-06-14T07:56:28;101811.01;;;17.79;23.23
72330;BME280;69154;52.076;5.110;2023-06-14T07:58:54;101815.32;;;18.59;23.10
72330;BME280;69154;52.076;5.110;2023-06-14T08:01:20;101814.35;;;19.09;22.06
72330;BME280;69154;52.076;5.110;2023-06-14T08:03:46;101815.53;;;19.33;22.22
72330;BME280;69154;52.076;5.110;2023-06-14T08:06:11;101816.25;;;19.97;21.43
72330;BME280;69154;52.076;5.110;2023-06-14T08:08:37;101815.07;;;19.53;20.80
72330;BME280;69154;52.076;5.110;2023-06-14T08:11:03;101816.81;;;20.49;20.30
72330;BME280;69154;52.076;5.110;2023-06-14T08:13:29;101818.53;;;18.92;21.16
72330;BME280;69154;52.076;5.110;2023-06-14T08:15:54;101819.27;;;18.69;21.92
72330;BME280;69154;52.076;5.110;2023-06-14T08:18:20;101813.13;;;19.25;21.06
72330;BME280;69154;52.076;5.110;2023-06-14T08:20:46;101814.86;;;19.47;21.05
72330;BME280;69154;52.076;5.110;2023-06-14T08:23:11;101816.46;;;18.44;21.66
72330;BME280;69154;52.076;5.110;2023-06-14T08:25:37;101814.63;;;17.02;21.90
72330;BME280;69154;52.076;5.110;2023-06-14T08:28:03;101815.83;;;17.92;22.60
72330;BME280;69154;52.076;5.110;2023-06-14T08:30:29;101809.83;;;17.19;23.26
72330;BME280;69154;52.076;5.110;2023-06-14T08:32:55;101816.37;;;17.79;22.35
72330;BME280;69154;52.076;5.110;2023-06-14T08:35:21;101812.79;;;18.44;22.00
72330;BME280;69154;52.076;5.110;2023-06-14T08:37:46;101809.80;;;18.71;21.03
72330;BME280;69154;52.076;5.110;2023-06-14T08:40:18;101811.63;;;18.23;21.78
72330;BME280;69154;52.076;5.110;2023-06-14T08:42:37;101809.53;;;19.56;20.93
72330;BME280;69154;52.076;5.110;2023-06-14T08:45:04;101813.98;;;18.37;21.51
72330;BME280;69154;52.076;5.110;2023-06-14T08:47:29;101807.49;;;18.94;21.14
72330;BME280;69154;52.076;5.110;2023-06-14T08:49:55;101810.35;;;18.45;21.65
72330;BME280;69154;52.076;5.110;2023-06-14T08:52:21;101806.16;;;19.04;21.26
72330;BME280;69154;52.076;5.110;2023-06-14T08:54:46;101807.56;;;19.95;20.24
72330;BME280;69154;52.076;5.110;2023-06-14T08:57:12;101805.44;;;19.33;20.49
72330;BME280;69154;52.076;5.110;2023-06-14T08:59:43;101806.55;;;17.07;21.20
72330;BME280;69154;52.076;5.110;2023-06-14T09:02:04;101809.67;;;18.14;21.17
72330;BME280;69154;52.076;5.110;2023-06-14T09:04:29;101813.04;;;17.91;22.00
72330;BME280;69154;52.076;5.110;2023-06-14T09:06:55;101809.34;;;17.72;21.03
72330;BME280;69154;52.076;5.110;2023-06-14T09:09:22;101808.75;;;17.56;21.25
72330;BME280;69154;52.076;5.110;2023-06-14T09:11:47;101807.97;;;16.92;21.90
72330;BME280;69154;52.076;5.110;2023-06-14T09:14:12;101813.00;;;17.84;21.42
72330;BME280;69154;52.076;5.110;2023-06-14T09:16:38;101812.16;;;16.93;21.89
72330;BME280;69154;52.076;5.110;2023-06-14T09:19:04;101810.96;;;18.07;22.08
72330;BME280;69154;52.076;5.110;2023-06-14T09:21:33;101814.34;;;18.47;20.81
72330;BME280;69154;52.076;5.110;2023-06-14T09:23:55;101822.32;;;18.95;20.55
72330;BME280;69154;52.076;5.110;2023-06-14T09:26:21;101821.30;;;19.38;19.98
72330;BME280;69154;52.076;5.110;2023-06-14T09:28:48;101819.67;;;20.06;20.28
72330;BME280;69154;52.076;5.110;2023-06-14T09:31:14;101820.46;;;21.57;18.15
72330;BME280;69154;52.076;5.110;2023-06-14T09:33:38;101819.21;;;23.47;16.65
72330;BME280;69154;52.076;5.110;2023-06-14T09:36:04;101815.35;;;26.26;14.80
72330;BME280;69154;52.076;5.110;2023-06-14T09:38:29;101818.27;;;29.17;13.13
72330;BME280;69154;52.076;5.110;2023-06-14T09:40:57;101819.66;;;27.78;13.37
72330;BME280;69154;52.076;5.110;2023-06-14T09:43:21;101820.11;;;29.64;12.63
72330;BME280;69154;52.076;5.110;2023-06-14T09:45:46;101810.80;;;32.27;11.41
72330;BME280;69154;52.076;5.110;2023-06-14T09:48:12;101813.14;;;32.62;10.43
72330;BME280;69154;52.076;5.110;2023-06-14T09:50:37;101812.54;;;33.07;10.14
72330;BME280;69154;52.076;5.110;2023-06-14T09:53:05;101816.70;;;33.50;9.72
72330;BME280;69154;52.076;5.110;2023-06-14T09:55:31;101813.30;;;29.04;11.53
72330;BME280;69154;52.076;5.110;2023-06-14T09:57:54;101810.15;;;29.69;11.13
72330;BME280;69154;52.076;5.110;2023-06-14T10:00:20;101813.97;;;28.14;12.52
72330;BME280;69154;52.076;5.110;2023-06-14T10:02:48;101818.65;;;29.89;12.14
72330;BME280;69154;52.076;5.110;2023-06-14T10:05:12;101813.36;;;27.97;12.73
72330;BME280;69154;52.076;5.110;2023-06-14T10:07:52;101818.54;;;26.21;12.74
72330;BME280;69154;52.076;5.110;2023-06-14T10:10:01;101819.34;;;24.08;14.31
72330;BME280;69154;52.076;5.110;2023-06-14T10:12:27;101819.36;;;27.05;12.91
72330;BME280;69154;52.076;5.110;2023-06-14T10:14:52;101819.99;;;27.89;12.18
72330;BME280;69154;52.076;5.110;2023-06-14T10:17:23;101818.82;;;28.82;12.09
72330;BME280;69154;52.076;5.110;2023-06-14T10:19:48;101815.17;;;29.00;11.47
72330;BME280;69154;52.076;5.110;2023-06-14T10:22:12;101811.90;;;27.19;12.26
72330;BME280;69154;52.076;5.110;2023-06-14T10:24:40;101814.15;;;29.21;11.91
72330;BME280;69154;52.076;5.110;2023-06-14T10:26:59;101806.67;;;24.90;13.89
72330;BME280;69154;52.076;5.110;2023-06-14T10:29:25;101807.67;;;26.28;13.77
72330;BME280;69154;52.076;5.110;2023-06-14T10:31:55;101805.17;;;26.97;12.91
72330;BME280;69154;52.076;5.110;2023-06-14T10:34:24;101803.64;;;26.03;13.68
72330;BME280;69154;52.076;5.110;2023-06-14T10:36:42;101809.58;;;24.24;14.06
72330;BME280;69154;52.076;5.110;2023-06-14T10:39:08;101802.72;;;26.30;13.57
72330;BME280;69154;52.076;5.110;2023-06-14T10:41:36;101809.09;;;28.11;13.11
72330;BME280;69154;52.076;5.110;2023-06-14T10:45:04;101813.57;;;25.80;13.68
72330;BME280;69154;52.076;5.110;2023-06-14T10:46:28;101804.07;;;30.86;11.53
72330;BME280;69154;52.076;5.110;2023-06-14T10:48:49;101806.67;;;34.24;9.75
72330;BME280;69154;52.076;5.110;2023-06-14T10:51:17;101804.22;;;31.06;10.55
72330;BME280;69154;52.076;5.110;2023-06-14T10:53:40;101803.00;;;27.84;11.74
72330;BME280;69154;52.076;5.110;2023-06-14T10:56:06;101807.10;;;26.63;12.84
72330;BME280;69154;52.076;5.110;2023-06-14T10:58:31;101805.30;;;27.23;11.64
72330;BME280;69154;52.076;5.110;2023-06-14T11:00:56;101804.32;;;24.66;13.95
72330;BME280;69154;52.076;5.110;2023-06-14T11:03:43;101813.11;;;22.17;14.48
72330;BME280;69154;52.076;5.110;2023-06-14T11:05:51;101812.02;;;23.46;15.03
72330;BME280;69154;52.076;5.110;2023-06-14T11:08:26;101813.46;;;24.58;14.40
72330;BME280;69154;52.076;5.110;2023-06-14T11:10:39;101815.69;;;23.11;14.78
72330;BME280;69154;52.076;5.110;2023-06-14T11:13:04;101811.12;;;24.11;14.78
72330;BME280;69154;52.076;5.110;2023-06-14T11:15:29;101809.54;;;24.98;14.05
72330;BME280;69154;52.076;5.110;2023-06-14T11:17:55;101798.86;;;25.04;14.16
72330;BME280;69154;52.076;5.110;2023-06-14T11:20:20;101791.85;;;24.67;14.91
72330;BME280;69154;52.076;5.110;2023-06-14T11:22:46;101792.39;;;26.39;14.23
72330;BME280;69154;52.076;5.110;2023-06-14T11:25:12;101795.22;;;28.87;12.92
72330;BME280;69154;52.076;5.110;2023-06-14T11:27:37;101787.60;;;30.68;11.74
72330;BME280;69154;52.076;5.110;2023-06-14T11:30:02;101783.44;;;30.74;11.54
72330;BME280;69154;52.076;5.110;2023-06-14T11:32:27;101782.38;;;31.32;10.88
72330;BME280;69154;52.076;5.110;2023-06-14T11:34:53;101784.41;;;30.80;10.94
72330;BME280;69154;52.076;5.110;2023-06-14T11:37:19;101783.17;;;26.52;12.22
72330;BME280;69154;52.076;5.110;2023-06-14T11:39:44;101781.55;;;26.40;12.83
72330;BME280;69154;52.076;5.110;2023-06-14T11:42:13;101780.03;;;26.53;13.02
72330;BME280;69154;52.076;5.110;2023-06-14T11:44:35;101777.78;;;27.52;12.80
72330;BME280;69154;52.076;5.110;2023-06-14T11:47:03;101786.58;;;27.14;14.53
72330;BME280;69154;52.076;5.110;2023-06-14T11:49:26;101784.42;;;29.55;11.43
72330;BME280;69154;52.076;5.110;2023-06-14T11:51:53;101776.44;;;26.72;12.85
72330;BME280;69154;52.076;5.110;2023-06-14T11:54:16;101783.03;;;27.61;12.56
72330;BME280;69154;52.076;5.110;2023-06-14T11:56:42;101782.03;;;28.32;12.34
72330;BME280;69154;52.076;5.110;2023-06-14T11:59:07;101785.12;;;27.51;12.45
72330;BME280;69154;52.076;5.110;2023-06-14T12:01:36;101782.56;;;27.38;13.27
72330;BME280;69154;52.076;5.110;2023-06-14T12:03:59;101778.82;;;30.01;11.83
72330;BME280;69154;52.076;5.110;2023-06-14T12:06:26;101787.99;;;27.91;13.47
72330;BME280;69154;52.076;5.110;2023-06-14T12:08:49;101784.96;;;25.55;12.57
72330;BME280;69154;52.076;5.110;2023-06-14T12:11:15;101786.32;;;25.25;13.91
72330;BME280;69154;52.076;5.110;2023-06-14T12:13:40;101782.24;;;26.68;13.50
72330;BME280;69154;52.076;5.110;2023-06-14T12:16:07;101784.45;;;26.72;13.01
72330;BME280;69154;52.076;5.110;2023-06-14T12:18:33;101778.98;;;26.97;13.14
72330;BME280;69154;52.076;5.110;2023-06-14T12:20:58;101780.20;;;26.48;12.97
72330;BME280;69154;52.076;5.110;2023-06-14T12:23:22;101781.01;;;29.66;11.57
72330;BME280;69154;52.076;5.110;2023-06-14T12:25:49;101782.37;;;28.38;12.14
72330;BME280;69154;52.076;5.110;2023-06-14T12:28:13;101775.21;;;26.96;13.28
72330;BME280;69154;52.076;5.110;2023-06-14T12:30:38;101777.26;;;28.00;12.11
72330;BME280;69154;52.076;5.110;2023-06-14T12:33:04;101779.72;;;29.22;11.55
72330;BME280;69154;52.076;5.110;2023-06-14T12:35:29;101784.26;;;27.51;12.13
72330;BME280;69154;52.076;5.110;2023-06-14T12:37:54;101776.24;;;27.26;11.98
72330;BME280;69154;52.076;5.110;2023-06-14T12:40:19;101780.69;;;25.45;14.07